createdAt,value
2017-07-14T00:01:48.998Z,2.30
2017-07-14T00:04:16.517Z,1.70
2017-07-14T00:06:44.044Z,1.55
2017-07-14T00:09:11.561Z,1.50
2017-07-14T00:11:39.071Z,1.60
2017-07-14T00:14:08.544Z,2.05
2017-07-14T00:16:36.073Z,1.65
2017-07-14T00:19:04.582Z,1.50
2017-07-14T00:21:33.094Z,1.30
2017-07-14T00:24:02.557Z,1.45
2017-07-14T00:26:32.047Z,1.60
2017-07-14T00:28:59.566Z,1.70
2017-07-14T00:31:27.080Z,1.30
2017-07-14T00:33:54.595Z,1.60
2017-07-14T00:36:22.111Z,2.33
2017-07-14T00:38:49.634Z,1.83
2017-07-14T00:41:17.146Z,1.30
2017-07-14T00:43:44.662Z,2.45
2017-07-14T00:46:12.177Z,1.60
2017-07-14T00:48:39.698Z,1.58
2017-07-14T00:51:07.205Z,1.50
2017-07-14T00:53:35.295Z,1.70
2017-07-14T00:56:02.805Z,1.70
2017-07-14T00:58:30.317Z,1.52
2017-07-14T01:00:57.822Z,1.60
2017-07-14T01:03:25.345Z,1.80
2017-07-14T01:05:52.854Z,1.40
2017-07-14T01:08:20.371Z,1.33
2017-07-14T01:10:47.889Z,1.50
2017-07-14T01:13:15.405Z,1.15
2017-07-14T01:15:42.946Z,1.30
2017-07-14T01:18:10.481Z,1.90
2017-07-14T01:20:37.993Z,1.50
2017-07-14T01:23:05.507Z,1.92
2017-07-14T01:25:33.034Z,1.55
2017-07-14T01:28:00.544Z,1.52
2017-07-14T01:30:28.054Z,1.50
2017-07-14T01:32:55.582Z,1.55
2017-07-14T01:35:24.110Z,1.40
2017-07-14T01:37:52.641Z,1.80
2017-07-14T01:40:20.162Z,1.83
2017-07-14T01:42:47.677Z,1.90
2017-07-14T01:45:15.214Z,1.95
2017-07-14T01:47:42.750Z,2.03
2017-07-14T01:50:10.273Z,1.60
2017-07-14T01:52:40.525Z,1.83
2017-07-14T01:55:09.042Z,1.95
2017-07-14T01:57:37.550Z,2.20
2017-07-14T02:00:05.109Z,1.90
2017-07-14T02:02:32.625Z,2.25
2017-07-14T02:05:00.142Z,1.83
2017-07-14T02:07:27.647Z,2.20
2017-07-14T02:12:40.989Z,1.83
2017-07-14T02:15:08.501Z,1.90
2017-07-14T02:17:36.014Z,2.12
2017-07-14T02:20:03.562Z,2.17
2017-07-14T02:22:31.077Z,2.05
2017-07-14T02:24:58.613Z,2.25
2017-07-14T02:27:26.134Z,2.28
2017-07-14T02:29:53.659Z,2.58
2017-07-14T02:32:21.170Z,1.77
2017-07-14T02:34:48.746Z,2.00
2017-07-14T02:37:17.433Z,2.20
2017-07-14T02:39:44.951Z,2.00
2017-07-14T02:42:12.470Z,2.00
2017-07-14T02:44:40.014Z,2.40
2017-07-14T02:47:07.547Z,2.15
2017-07-14T02:49:35.080Z,2.30
2017-07-14T02:52:02.601Z,2.20
2017-07-14T02:54:30.110Z,2.45
2017-07-14T02:56:57.613Z,2.08
2017-07-14T02:59:25.121Z,2.15
2017-07-14T03:01:52.646Z,2.35
2017-07-14T03:04:20.171Z,2.28
2017-07-14T03:06:47.689Z,2.20
2017-07-14T03:09:19.068Z,2.45
2017-07-14T03:11:46.589Z,2.78
2017-07-14T03:14:14.093Z,2.30
2017-07-14T03:16:41.618Z,2.40
2017-07-14T03:19:09.129Z,2.10
2017-07-14T03:21:36.642Z,2.35
2017-07-14T03:24:04.261Z,2.72
2017-07-14T03:26:31.799Z,2.78
2017-07-14T03:28:59.370Z,2.50
2017-07-14T03:31:26.894Z,2.45
2017-07-14T03:33:54.419Z,2.95
2017-07-14T03:36:21.936Z,2.97
2017-07-14T03:38:49.440Z,2.92
2017-07-14T03:41:16.970Z,2.78
2017-07-14T03:43:44.912Z,2.70
2017-07-14T03:46:12.427Z,2.80
2017-07-14T03:48:39.958Z,3.00
2017-07-14T03:51:07.460Z,2.10
2017-07-14T03:53:34.969Z,2.40
2017-07-14T03:56:02.487Z,2.35
2017-07-14T03:58:30.019Z,2.50
2017-07-14T04:00:57.534Z,2.75
2017-07-14T04:03:25.057Z,2.30
2017-07-14T04:05:53.575Z,2.75
2017-07-14T04:08:22.086Z,2.35
2017-07-14T04:10:49.597Z,3.12
2017-07-14T04:13:17.106Z,2.47
2017-07-14T04:15:44.631Z,3.05
2017-07-14T04:18:12.154Z,2.85
2017-07-14T04:20:39.668Z,2.65
2017-07-14T04:23:07.176Z,2.35
2017-07-14T04:25:34.696Z,2.78
2017-07-14T04:28:02.213Z,2.50
2017-07-14T04:30:29.726Z,2.72
2017-07-14T04:32:57.238Z,2.53
2017-07-14T04:35:24.757Z,2.55
2017-07-14T04:37:52.284Z,2.45
2017-07-14T04:40:19.793Z,2.55
2017-07-14T04:42:47.310Z,2.70
2017-07-14T04:45:14.834Z,2.30
2017-07-14T04:47:42.343Z,2.22
2017-07-14T04:50:09.858Z,2.53
2017-07-14T04:52:37.372Z,2.50
2017-07-14T04:55:04.886Z,2.67
2017-07-14T04:57:32.398Z,2.30
2017-07-14T04:59:59.905Z,2.20
2017-07-14T05:02:27.422Z,2.53
2017-07-14T05:04:55.954Z,2.85
2017-07-14T05:07:23.476Z,2.33
2017-07-14T05:09:51.434Z,2.42
2017-07-14T05:12:19.014Z,2.65
2017-07-14T05:14:46.530Z,2.72
2017-07-14T05:17:14.046Z,2.72
2017-07-14T05:19:41.582Z,2.55
2017-07-14T05:22:09.100Z,3.12
2017-07-14T05:24:36.625Z,2.50
2017-07-14T05:27:04.141Z,2.67
2017-07-14T05:29:32.673Z,2.85
2017-07-14T05:32:00.192Z,3.55
2017-07-14T05:34:27.717Z,3.60
2017-07-14T05:36:55.243Z,3.22
2017-07-14T05:39:22.763Z,3.20
2017-07-14T05:41:50.294Z,3.42
2017-07-14T05:44:17.814Z,3.25
2017-07-14T05:46:45.721Z,3.60
2017-07-14T05:49:13.253Z,3.67
2017-07-14T05:51:40.768Z,3.90
2017-07-14T05:54:08.292Z,3.25
2017-07-14T05:56:35.833Z,3.20
2017-07-14T05:59:03.354Z,4.00
2017-07-14T06:01:30.876Z,3.55
2017-07-14T06:03:58.417Z,3.37
2017-07-14T06:06:25.938Z,4.20
2017-07-14T06:08:53.457Z,3.70
2017-07-14T06:11:20.990Z,3.97
2017-07-14T06:13:48.513Z,4.25
2017-07-14T06:16:16.030Z,4.37
2017-07-14T06:18:43.559Z,4.45
2017-07-14T06:21:11.084Z,4.10
2017-07-14T06:23:38.613Z,4.30
2017-07-14T06:26:06.125Z,4.37
2017-07-14T06:28:33.641Z,4.10
2017-07-14T06:31:01.157Z,4.45
2017-07-14T06:33:28.673Z,3.90
2017-07-14T06:35:55.999Z,3.97
2017-07-14T06:38:23.517Z,3.62
2017-07-14T06:40:51.034Z,3.75
2017-07-14T06:43:18.750Z,4.37
2017-07-14T06:45:46.264Z,3.92
2017-07-14T06:48:13.776Z,4.15
2017-07-14T06:50:41.277Z,4.43
2017-07-14T06:53:08.789Z,3.65
2017-07-14T06:55:36.332Z,3.67
2017-07-14T06:58:03.853Z,4.03
2017-07-14T07:00:31.372Z,3.83
2017-07-14T07:02:58.891Z,3.47
2017-07-14T07:05:26.410Z,3.83
2017-07-14T07:07:53.935Z,3.75
2017-07-14T07:10:21.445Z,3.80
2017-07-14T07:12:48.971Z,5.25
2017-07-14T07:15:16.492Z,3.53
2017-07-14T07:17:44.013Z,3.80
2017-07-14T07:20:11.523Z,4.00
2017-07-14T07:22:39.051Z,3.47
2017-07-14T07:25:06.563Z,3.53
2017-07-14T07:27:34.515Z,3.47
2017-07-14T07:30:02.051Z,3.83
2017-07-14T07:32:29.577Z,3.60
2017-07-14T07:34:57.103Z,4.72
2017-07-14T07:37:24.623Z,4.75
2017-07-14T07:39:52.162Z,4.35
2017-07-14T07:42:19.684Z,3.97
2017-07-14T07:44:47.210Z,4.30
2017-07-14T07:47:20.210Z,4.05
2017-07-14T07:49:47.735Z,4.22
2017-07-14T07:52:15.301Z,4.75
2017-07-14T07:54:42.833Z,3.70
2017-07-14T07:57:10.063Z,3.97
2017-07-14T07:59:37.582Z,4.50
2017-07-14T08:02:05.086Z,4.07
2017-07-14T08:04:32.605Z,3.62
2017-07-14T08:07:00.115Z,3.70
2017-07-14T08:09:27.637Z,3.40
2017-07-14T08:11:55.222Z,3.75
2017-07-14T08:14:22.730Z,3.30
2017-07-14T08:16:50.243Z,3.40
2017-07-14T08:19:17.765Z,3.65
2017-07-14T08:21:45.269Z,3.70
2017-07-14T08:24:12.780Z,4.07
2017-07-14T08:26:40.339Z,3.90
2017-07-14T08:29:07.840Z,2.95
2017-07-14T08:31:35.350Z,2.72
2017-07-14T08:34:02.556Z,3.00
2017-07-14T08:36:30.053Z,3.72
2017-07-14T08:38:57.577Z,2.70
2017-07-14T08:41:25.076Z,3.67
2017-07-14T08:43:52.582Z,2.90
2017-07-14T08:46:19.799Z,2.90
2017-07-14T08:48:47.053Z,2.97
2017-07-14T08:51:14.573Z,3.10
2017-07-14T08:53:42.069Z,2.80
2017-07-14T08:56:09.294Z,2.77
2017-07-14T08:58:36.515Z,2.30
2017-07-14T09:01:03.804Z,2.70
2017-07-14T09:03:31.059Z,2.70
2017-07-14T09:05:58.286Z,2.37
2017-07-14T09:08:25.510Z,2.20
2017-07-14T09:10:53.679Z,2.63
2017-07-14T09:13:20.898Z,2.70
2017-07-14T09:15:48.425Z,2.73
2017-07-14T09:18:15.646Z,2.90
2017-07-14T09:20:42.862Z,2.87
2017-07-14T09:23:10.102Z,2.87
2017-07-14T09:25:37.314Z,2.70
2017-07-14T09:28:04.546Z,2.50
2017-07-14T09:30:31.786Z,2.73
2017-07-14T09:32:58.993Z,2.90
2017-07-14T09:35:26.197Z,3.23
2017-07-14T09:37:53.411Z,3.03
2017-07-14T09:40:20.637Z,3.20
2017-07-14T09:42:48.224Z,3.10
2017-07-14T09:45:15.438Z,2.63
2017-07-14T09:47:42.761Z,2.50
2017-07-14T09:50:09.981Z,2.57
2017-07-14T09:52:37.216Z,3.10
2017-07-14T09:55:04.437Z,2.83
2017-07-14T09:57:32.077Z,2.97
2017-07-14T09:59:59.299Z,3.00
2017-07-14T10:02:26.518Z,2.77
2017-07-14T10:04:55.681Z,2.50
2017-07-14T10:07:22.900Z,3.20
2017-07-14T10:09:50.161Z,3.40
2017-07-14T10:12:17.382Z,2.77
2017-07-14T10:14:44.603Z,3.20
2017-07-14T10:17:11.833Z,2.60
2017-07-14T10:19:39.049Z,3.00
2017-07-14T10:22:06.265Z,3.30
2017-07-14T10:24:33.481Z,3.37
2017-07-14T10:27:00.699Z,2.70
2017-07-14T10:29:27.929Z,2.67
2017-07-14T10:31:55.137Z,2.53
2017-07-14T10:34:22.351Z,3.00
2017-07-14T10:36:49.566Z,2.23
2017-07-14T10:39:16.788Z,2.60
2017-07-14T10:41:44.031Z,2.03
2017-07-14T10:44:11.246Z,2.13
2017-07-14T10:46:38.469Z,2.63
2017-07-14T10:49:05.688Z,2.47
2017-07-14T10:51:32.915Z,2.37
2017-07-14T10:54:00.665Z,1.93
2017-07-14T10:56:28.356Z,2.07
2017-07-14T10:58:55.569Z,2.07
2017-07-14T11:01:22.785Z,2.30
2017-07-14T11:03:49.985Z,2.77
2017-07-14T11:06:19.157Z,2.37
2017-07-14T11:08:46.363Z,2.50
2017-07-14T11:11:13.589Z,1.80
2017-07-14T11:13:40.811Z,2.60
2017-07-14T11:16:08.029Z,2.47
2017-07-14T11:18:35.268Z,2.10
2017-07-14T11:21:03.448Z,2.70
2017-07-14T11:23:30.673Z,2.17
2017-07-14T11:25:57.885Z,1.87
2017-07-14T11:28:25.102Z,2.10
2017-07-14T11:30:52.334Z,2.20
2017-07-14T11:33:19.548Z,1.97
2017-07-14T11:35:46.762Z,1.73
2017-07-14T11:38:13.986Z,2.23
2017-07-14T11:40:41.197Z,1.73
2017-07-14T11:43:08.429Z,1.80
2017-07-14T11:45:35.654Z,2.13
2017-07-14T11:48:02.865Z,1.90
2017-07-14T11:50:30.077Z,2.47
2017-07-14T11:52:57.301Z,2.20
2017-07-14T11:55:24.538Z,1.77
2017-07-14T11:57:51.754Z,2.43
2017-07-14T12:00:18.969Z,3.43
2017-07-14T12:02:46.181Z,4.90
2017-07-14T12:05:13.689Z,6.43
2017-07-14T12:07:41.024Z,5.00
2017-07-14T12:10:08.560Z,4.22
2017-07-14T12:12:36.048Z,3.60
2017-07-14T12:15:03.350Z,5.30
2017-07-14T12:17:30.851Z,5.90
2017-07-14T12:19:58.374Z,5.82
2017-07-14T12:22:25.852Z,5.65
2017-07-14T12:24:53.343Z,5.47
2017-07-14T12:27:20.838Z,6.15
2017-07-14T12:29:48.333Z,6.05
2017-07-14T12:32:15.850Z,5.30
2017-07-14T12:34:43.341Z,4.68
2017-07-14T12:37:10.841Z,4.97
2017-07-14T12:39:38.342Z,4.35
2017-07-14T12:42:05.846Z,4.20
2017-07-14T12:44:34.377Z,3.87
2017-07-14T12:47:01.860Z,4.30
2017-07-14T12:49:29.444Z,4.10
2017-07-14T12:51:56.666Z,4.60
2017-07-14T12:54:24.162Z,5.82
2017-07-14T12:56:51.675Z,4.68
2017-07-14T12:59:19.175Z,4.68
2017-07-14T13:01:46.703Z,4.75
2017-07-14T13:04:14.202Z,5.57
2017-07-14T13:06:41.714Z,4.90
2017-07-14T13:09:09.234Z,4.47
2017-07-14T13:11:36.732Z,4.55
2017-07-14T13:14:04.230Z,4.00
2017-07-14T13:16:31.730Z,4.10
2017-07-14T13:18:59.281Z,3.55
2017-07-14T13:21:26.815Z,3.87
2017-07-14T13:23:54.317Z,3.83
2017-07-14T13:26:21.813Z,2.55
2017-07-14T13:28:49.310Z,3.10
2017-07-14T13:31:16.799Z,2.22
2017-07-14T13:33:44.311Z,2.65
2017-07-14T13:36:11.803Z,2.97
2017-07-14T13:38:39.298Z,2.35
2017-07-14T13:41:07.464Z,2.37
2017-07-14T13:43:34.688Z,2.13
2017-07-14T13:46:01.916Z,1.97
2017-07-14T13:48:29.130Z,2.37
2017-07-14T13:50:56.341Z,2.17
2017-07-14T13:53:23.545Z,2.40
2017-07-14T13:55:50.750Z,2.67
2017-07-14T13:58:17.977Z,2.43
2017-07-14T14:00:45.189Z,2.93
2017-07-14T14:03:12.397Z,2.53
2017-07-14T14:05:39.608Z,2.07
2017-07-14T14:08:06.808Z,1.97
2017-07-14T14:10:34.034Z,1.80
2017-07-14T14:13:02.187Z,1.70
2017-07-14T14:15:29.433Z,1.40
2017-07-14T14:17:56.860Z,1.50
2017-07-14T14:20:24.071Z,1.30
2017-07-14T14:22:51.300Z,1.13
2017-07-14T14:25:19.466Z,1.70
2017-07-14T14:27:46.677Z,1.70
2017-07-14T14:30:13.914Z,1.90
2017-07-14T14:32:41.136Z,2.37
2017-07-14T14:35:08.341Z,1.80
2017-07-14T14:37:35.557Z,1.67
2017-07-14T14:40:02.765Z,2.37
2017-07-14T14:42:30.918Z,2.33
2017-07-14T14:44:58.122Z,1.87
2017-07-14T14:47:25.342Z,1.60
2017-07-14T14:49:52.549Z,1.20
2017-07-14T14:52:19.755Z,1.67
2017-07-14T14:54:46.969Z,1.50
2017-07-14T14:57:14.198Z,1.50
2017-07-14T14:59:41.413Z,1.50
2017-07-14T15:02:08.631Z,1.30
2017-07-14T15:04:35.850Z,1.37
2017-07-14T15:07:03.059Z,1.40
2017-07-14T15:09:30.298Z,1.33
2017-07-14T15:11:57.514Z,1.20
2017-07-14T15:14:24.726Z,1.57
2017-07-14T15:16:51.938Z,1.20
2017-07-14T15:19:19.143Z,1.50
2017-07-14T15:21:46.192Z,1.73
2017-07-14T15:24:13.402Z,1.80
2017-07-14T15:26:40.614Z,2.20
2017-07-14T15:29:07.823Z,2.07
2017-07-14T15:31:35.953Z,1.40
2017-07-14T15:34:03.185Z,1.70
2017-07-14T15:36:30.391Z,1.60
2017-07-14T15:38:57.601Z,1.50
2017-07-14T15:41:24.807Z,1.80
2017-07-14T15:43:52.013Z,1.63
2017-07-14T15:46:19.247Z,1.70
2017-07-14T15:48:46.458Z,1.67
2017-07-14T15:51:13.666Z,1.63
2017-07-14T15:53:40.874Z,1.83
2017-07-14T15:56:09.031Z,1.30
2017-07-14T15:58:36.278Z,1.40
2017-07-14T16:01:03.488Z,1.60
2017-07-14T16:03:30.697Z,1.40
2017-07-14T16:05:57.909Z,2.30
2017-07-14T16:08:26.066Z,1.60
2017-07-14T16:10:53.285Z,1.73
2017-07-14T16:13:20.495Z,1.70
2017-07-14T16:15:47.712Z,1.53
2017-07-14T16:18:14.930Z,2.10
2017-07-14T16:20:42.138Z,1.90
2017-07-14T16:23:09.370Z,2.27
2017-07-14T16:25:36.584Z,2.03
2017-07-14T16:28:03.792Z,2.17
2017-07-14T16:30:30.997Z,2.20
2017-07-14T16:32:59.161Z,2.00
2017-07-14T16:35:26.705Z,2.13
2017-07-14T16:37:53.922Z,2.10
2017-07-14T16:40:21.130Z,2.40
2017-07-14T16:42:48.334Z,1.90
2017-07-14T16:45:16.477Z,2.00
2017-07-14T16:47:43.709Z,2.30
2017-07-14T16:50:10.914Z,4.20
2017-07-14T16:52:39.058Z,2.63
2017-07-14T16:55:06.261Z,2.63
2017-07-14T16:57:33.485Z,3.00
2017-07-14T17:00:00.715Z,2.50
2017-07-14T17:02:27.917Z,2.43
2017-07-14T17:04:55.129Z,2.60
2017-07-14T17:07:22.340Z,2.70
2017-07-14T17:09:49.551Z,2.80
2017-07-14T17:12:16.777Z,2.60
2017-07-14T17:14:43.985Z,2.50
2017-07-14T17:17:11.478Z,2.67
2017-07-14T17:19:38.969Z,2.37
2017-07-14T17:22:06.177Z,3.13
2017-07-14T17:24:33.409Z,2.80
2017-07-14T17:27:00.911Z,3.00
2017-07-14T17:29:28.402Z,3.20
2017-07-14T17:31:55.896Z,4.05
2017-07-14T17:34:23.390Z,4.95
2017-07-14T17:36:50.925Z,4.32
2017-07-14T17:39:18.422Z,5.28
2017-07-14T17:41:45.917Z,4.07
2017-07-14T17:44:13.414Z,2.55
2017-07-14T17:46:40.930Z,3.60
2017-07-14T17:49:08.445Z,5.85
2017-07-14T17:51:35.938Z,5.50
2017-07-14T17:54:03.434Z,5.93
2017-07-14T17:56:30.921Z,6.10
2017-07-14T17:58:58.423Z,5.45
2017-07-14T18:01:25.935Z,5.90
2017-07-14T18:03:53.428Z,5.60
2017-07-14T18:06:20.926Z,5.03
2017-07-14T18:08:48.422Z,4.95
2017-07-14T18:11:15.911Z,4.95
2017-07-14T18:13:45.377Z,5.62
2017-07-14T18:16:12.870Z,6.20
2017-07-14T18:18:40.364Z,5.30
2017-07-14T18:21:07.853Z,4.68
2017-07-14T18:23:35.338Z,5.80
2017-07-14T18:26:02.854Z,5.57
2017-07-14T18:28:30.664Z,5.20
2017-07-14T18:30:58.160Z,5.30
2017-07-14T18:33:25.648Z,6.43
2017-07-14T18:35:54.640Z,6.97
2017-07-14T18:38:22.154Z,6.55
2017-07-14T18:40:49.656Z,6.80
2017-07-14T18:43:17.149Z,6.93
2017-07-14T18:45:44.644Z,7.40
2017-07-14T18:48:12.135Z,7.25
2017-07-14T18:50:39.662Z,6.68
2017-07-14T18:53:07.169Z,7.18
2017-07-14T18:55:34.669Z,6.90
2017-07-14T18:58:02.169Z,6.87
2017-07-14T19:00:29.669Z,6.10
2017-07-14T19:02:57.191Z,4.60
2017-07-14T19:05:24.685Z,6.30
2017-07-14T19:07:52.181Z,5.82
2017-07-14T19:10:19.677Z,4.75
2017-07-14T19:12:47.206Z,3.85
2017-07-14T19:15:14.717Z,4.20
2017-07-14T19:17:42.218Z,4.55
2017-07-14T19:20:09.725Z,3.70
2017-07-14T19:22:37.224Z,3.90
2017-07-14T19:25:04.728Z,4.15
2017-07-14T19:27:32.278Z,2.55
2017-07-14T19:29:59.781Z,2.85
2017-07-14T19:32:27.286Z,3.33
2017-07-14T19:34:54.793Z,3.45
2017-07-14T19:37:22.290Z,5.18
2017-07-14T19:39:49.813Z,4.87
2017-07-14T19:42:17.347Z,4.35
2017-07-14T19:44:44.850Z,3.90
2017-07-14T19:47:12.345Z,3.67
2017-07-14T19:49:39.846Z,3.87
2017-07-14T19:52:07.367Z,3.95
2017-07-14T19:54:34.860Z,4.30
2017-07-14T19:57:02.353Z,4.60
2017-07-14T19:59:29.849Z,4.85
2017-07-14T20:01:57.345Z,4.10
2017-07-14T20:04:24.871Z,5.40
2017-07-14T20:06:52.362Z,5.25
2017-07-14T20:09:19.866Z,4.62
2017-07-14T20:11:47.392Z,5.30
2017-07-14T20:14:14.894Z,5.00
2017-07-14T20:16:42.408Z,5.53
2017-07-14T20:19:09.902Z,4.90
2017-07-14T20:21:37.399Z,5.00
2017-07-14T20:24:04.892Z,5.40
2017-07-14T20:26:32.402Z,5.65
2017-07-14T20:28:59.892Z,5.28
2017-07-14T20:31:27.393Z,4.82
2017-07-14T20:33:54.898Z,5.30
2017-07-14T20:36:22.405Z,5.93
2017-07-14T20:38:49.754Z,4.75
2017-07-14T20:41:17.276Z,5.53
2017-07-14T20:43:44.780Z,6.45
2017-07-14T20:46:12.293Z,5.87
2017-07-14T20:48:39.810Z,5.50
2017-07-14T20:51:07.349Z,5.18
2017-07-14T20:53:34.849Z,5.18
2017-07-14T20:56:02.353Z,5.40
2017-07-14T20:58:29.858Z,4.93
2017-07-14T21:00:57.359Z,5.20
2017-07-14T21:03:24.881Z,5.45
2017-07-14T21:05:52.392Z,5.75
2017-07-14T21:08:19.889Z,5.55
2017-07-14T21:10:47.377Z,6.40
2017-07-14T21:13:14.888Z,5.53
2017-07-14T21:15:42.398Z,5.70
2017-07-14T21:18:09.897Z,5.80
2017-07-14T21:20:37.395Z,6.18
2017-07-14T21:23:04.889Z,6.32
2017-07-14T21:25:32.397Z,6.35
2017-07-14T21:27:59.911Z,6.72
2017-07-14T21:30:27.406Z,6.80
2017-07-14T21:32:54.898Z,7.00
2017-07-14T21:35:22.408Z,6.60
2017-07-14T21:37:49.924Z,5.97
2017-07-14T21:40:17.453Z,6.90
2017-07-14T21:42:44.955Z,7.12
2017-07-14T21:45:12.447Z,6.10
2017-07-14T21:47:39.934Z,5.45
2017-07-14T21:50:07.433Z,5.93
2017-07-14T21:52:34.947Z,5.72
2017-07-14T21:55:02.448Z,6.03
2017-07-14T21:57:29.962Z,5.35
2017-07-14T21:59:57.461Z,4.78
2017-07-14T22:02:24.955Z,5.12
2017-07-14T22:04:52.469Z,5.18
2017-07-14T22:07:19.963Z,5.40
2017-07-14T22:09:47.457Z,6.93
2017-07-14T22:12:14.945Z,6.50
2017-07-14T22:14:42.434Z,5.35
2017-07-14T22:17:09.953Z,6.20
2017-07-14T22:19:37.446Z,5.55
2017-07-14T22:22:04.946Z,5.80
2017-07-14T22:24:32.453Z,5.28
2017-07-14T22:26:59.946Z,5.30
2017-07-14T22:29:27.469Z,6.18
2017-07-14T22:31:54.970Z,6.30
2017-07-14T22:34:22.471Z,6.45
2017-07-14T22:36:49.970Z,6.25
2017-07-14T22:39:17.484Z,6.57
2017-07-14T22:41:45.014Z,7.45
2017-07-14T22:44:12.518Z,6.85
2017-07-14T22:46:40.017Z,6.37
2017-07-14T22:49:07.521Z,6.87
2017-07-14T22:51:35.042Z,6.55
2017-07-14T22:54:02.568Z,6.85
2017-07-14T22:56:30.218Z,7.10
2017-07-14T22:58:57.725Z,6.57
2017-07-14T23:01:25.225Z,7.22
2017-07-14T23:03:52.721Z,5.95
2017-07-14T23:06:22.174Z,6.75
2017-07-14T23:08:49.695Z,7.28
2017-07-14T23:11:17.199Z,7.00
2017-07-14T23:13:44.707Z,7.45
2017-07-14T23:16:12.219Z,6.93
2017-07-14T23:18:39.777Z,7.28
2017-07-14T23:21:07.274Z,7.05
2017-07-14T23:23:34.770Z,6.50
2017-07-14T23:26:02.260Z,6.65
2017-07-14T23:28:29.754Z,5.90
2017-07-14T23:30:57.270Z,5.93
2017-07-14T23:33:24.757Z,6.47
2017-07-14T23:35:52.262Z,6.87
2017-07-14T23:38:19.773Z,5.85
2017-07-14T23:40:47.269Z,7.07
2017-07-14T23:43:14.773Z,5.68
2017-07-14T23:45:42.263Z,6.57
2017-07-14T23:48:09.745Z,6.50
2017-07-14T23:50:37.241Z,5.87
2017-07-14T23:53:04.737Z,6.95
2017-07-14T23:55:32.260Z,6.30
2017-07-14T23:57:59.762Z,5.70
